CheckWX is a tool to help pilots better visualize weather data.  It is not intended as a substitute for an official pre-flight weather briefing.

00:29:22 UTC

EGPF METAR
Glasgow International Airport
Glasgow, United Kingdom
Current

39 mins ago

EGPF 242350Z AUTO 06002KT 9999 NCD 07/06 Q1031
Observed
May-24 @ 23:50 UTC
Wind
  • 060° at 2 KTS
Visibility
10,000+ meters
Flight Rules
VFR
Cloud Levels
  • Clear skies
Temperature
C / 45°F
Dewpoint
C / 43°F
Humidity
93%
Altimeter
30.44" Hg
Pressure
1030.92 hPa
Previous

1 hour ago

EGPF 242320Z AUTO 27003KT 9999 SCT027 08/07 Q1031
Observed
May-24 @ 23:20 UTC
Wind
  • 270° at 3 KTS
Visibility
10,000+ meters
Flight Rules
VFR
Cloud Levels
  • Scattered at 2,700' AGL
Temperature
C / 46°F
Dewpoint
C / 45°F
Humidity
93%
Altimeter
30.44" Hg
Pressure
1030.92 hPa
Previous

2 hours ago

EGPF 242250Z AUTO 24004KT 9999 BKN028 07/06 Q1031
Observed
May-24 @ 22:50 UTC
Wind
  • 240° at 4 KTS
Visibility
10,000+ meters
Flight Rules
MVFR
Cloud Levels
  • Broken at 2,800' AGL
Temperature
C / 45°F
Dewpoint
C / 43°F
Humidity
93%
Altimeter
30.44" Hg
Pressure
1030.92 hPa